Time,TemperatureF,DewpointF,PressureIn,WindDirection,WindDirectionDegrees,WindSpeedMPH,WindSpeedGustMPH,Humidity,HourlyPrecipIn,Conditions,Clouds,dailyrainin,SolarRadiationWatts/m^2,SoftwareType,DateUTC
2013-08-10 00:01:00,57.2,55.2,30.14,North,350,0.0,0.0,93,0.00,,,0.00,0.0,meteohub,2013-08-10 05:01:00,
2013-08-10 00:06:00,57.2,55.2,30.14,North,350,0.0,0.0,93,0.00,,,0.00,0.0,meteohub,2013-08-10 05:06:00,
2013-08-10 00:12:00,57.0,55.0,30.14,North,350,0.0,0.0,93,0.00,,,0.00,0.0,meteohub,2013-08-10 05:12:00,
2013-08-10 00:17:00,57.0,55.0,30.14,North,350,0.0,0.0,93,0.00,,,0.00,0.0,meteohub,2013-08-10 05:17:00,
2013-08-10 00:22:00,56.8,54.9,30.15,North,350,0.0,0.0,93,0.00,,,0.00,0.0,meteohub,2013-08-10 05:22:00,
2013-08-10 00:27:00,56.8,55.2,30.15,North,350,0.0,0.0,94,0.00,,,0.00,0.0,meteohub,2013-08-10 05:27:00,
2013-08-10 00:32:00,56.8,55.2,30.15,North,350,0.0,0.0,94,0.00,,,0.00,0.0,meteohub,2013-08-10 05:32:00,
2013-08-10 00:37:00,56.8,55.2,30.15,North,350,0.0,0.0,94,0.00,,,0.00,0.0,meteohub,2013-08-10 05:37:00,
2013-08-10 00:42:00,56.8,54.9,30.15,North,350,0.0,0.0,93,0.00,,,0.00,0.0,meteohub,2013-08-10 05:42:00,
2013-08-10 00:47:00,56.8,54.9,30.15,North,350,0.0,0.0,93,0.00,,,0.00,0.0,meteohub,2013-08-10 05:47:00,
2013-08-10 00:52:00,56.8,54.9,30.15,North,350,0.0,0.0,93,0.00,,,0.00,0.0,meteohub,2013-08-10 05:52:00,
2013-08-10 00:57:00,56.8,54.5,30.15,North,350,0.0,0.0,92,0.00,,,0.00,0.0,meteohub,2013-08-10 05:57:00,
2013-08-10 01:02:00,56.7,54.3,30.15,North,350,0.0,0.0,92,0.00,,,0.00,0.0,meteohub,2013-08-10 06:02:00,
2013-08-10 01:07:00,56.5,54.5,30.15,North,350,0.0,0.0,93,0.00,,,0.00,0.0,meteohub,2013-08-10 06:07:00,
2013-08-10 01:12:00,56.1,54.1,30.16,North,350,0.0,0.0,93,0.00,,,0.00,0.0,meteohub,2013-08-10 06:12:00,
2013-08-10 01:17:00,55.9,54.0,30.16,North,350,0.0,0.0,93,0.00,,,0.00,0.0,meteohub,2013-08-10 06:17:00,
2013-08-10 01:22:00,55.9,54.3,30.15,North,350,0.0,0.0,94,0.00,,,0.00,0.0,meteohub,2013-08-10 06:22:00,
2013-08-10 01:27:00,55.8,54.1,30.16,North,350,0.0,0.0,94,0.00,,,0.00,0.0,meteohub,2013-08-10 06:27:00,
2013-08-10 01:32:00,55.8,54.1,30.16,North,350,0.0,0.0,94,0.00,,,0.00,0.0,meteohub,2013-08-10 06:32:00,
2013-08-10 01:37:00,55.8,54.1,30.16,North,350,0.0,0.0,94,0.00,,,0.00,0.0,meteohub,2013-08-10 06:37:00,
2013-08-10 01:42:00,55.8,54.1,30.16,North,350,0.0,0.0,94,0.00,,,0.00,0.0,meteohub,2013-08-10 06:42:00,
2013-08-10 01:47:00,55.8,53.8,30.16,North,350,0.0,0.0,93,0.00,,,0.00,0.0,meteohub,2013-08-10 06:47:00,
2013-08-10 01:52:00,55.6,53.6,30.16,North,350,0.0,0.0,93,0.00,,,0.00,0.0,meteohub,2013-08-10 06:52:00,
2013-08-10 01:57:00,55.6,53.6,30.16,North,350,0.0,0.0,93,0.00,,,0.00,0.0,meteohub,2013-08-10 06:57:00,
2013-08-10 02:02:00,55.6,54.0,30.16,North,350,0.0,0.0,94,0.00,,,0.00,0.0,meteohub,2013-08-10 07:02:00,
2013-08-10 02:07:00,55.6,54.0,30.16,North,350,0.0,0.0,94,0.00,,,0.00,0.0,meteohub,2013-08-10 07:07:00,
2013-08-10 02:12:00,55.8,54.1,30.16,North,350,0.0,0.0,94,0.00,,,0.00,0.0,meteohub,2013-08-10 07:12:00,
2013-08-10 02:17:00,55.8,54.1,30.16,North,350,0.0,0.0,94,0.00,,,0.00,0.0,meteohub,2013-08-10 07:17:00,
2013-08-10 02:22:00,55.6,54.0,30.16,North,350,0.0,0.0,94,0.00,,,0.00,0.0,meteohub,2013-08-10 07:22:00,
2013-08-10 02:27:00,55.6,54.0,30.16,North,350,0.0,0.0,94,0.00,,,0.00,0.0,meteohub,2013-08-10 07:27:00,
2013-08-10 02:32:00,55.6,54.0,30.17,North,350,0.0,0.0,94,0.00,,,0.00,0.0,meteohub,2013-08-10 07:32:00,
2013-08-10 02:37:00,55.4,53.8,30.17,North,350,0.0,0.0,94,0.00,,,0.00,0.0,meteohub,2013-08-10 07:37:00,
2013-08-10 02:42:00,55.2,53.6,30.17,North,350,0.0,0.0,94,0.00,,,0.00,0.0,meteohub,2013-08-10 07:42:00,
2013-08-10 02:47:00,55.0,53.4,30.17,North,350,0.0,0.0,94,0.00,,,0.00,0.0,meteohub,2013-08-10 07:47:00,
2013-08-10 02:52:00,54.9,53.4,30.17,North,350,0.0,0.0,95,0.00,,,0.00,0.0,meteohub,2013-08-10 07:52:00,
2013-08-10 02:57:00,54.7,53.2,30.17,North,350,0.0,0.0,95,0.00,,,0.00,0.0,meteohub,2013-08-10 07:57:00,
2013-08-10 03:02:00,54.7,53.2,30.17,North,350,0.0,0.0,95,0.00,,,0.00,0.0,meteohub,2013-08-10 08:02:00,
2013-08-10 03:07:00,54.5,53.1,30.17,North,350,0.0,0.0,95,0.00,,,0.00,0.0,meteohub,2013-08-10 08:07:00,
2013-08-10 03:12:00,54.3,52.9,30.17,North,350,0.0,0.0,95,0.00,,,0.00,0.0,meteohub,2013-08-10 08:12:00,
2013-08-10 03:17:00,54.1,52.7,30.17,North,350,0.0,0.0,95,0.00,,,0.00,0.0,meteohub,2013-08-10 08:17:00,
2013-08-10 03:22:00,54.1,53.1,30.17,North,350,0.0,0.0,96,0.00,,,0.00,0.0,meteohub,2013-08-10 08:22:00,
2013-08-10 03:27:00,54.1,53.1,30.17,North,350,0.0,0.0,96,0.00,,,0.00,0.0,meteohub,2013-08-10 08:27:00,
2013-08-10 03:32:00,54.0,52.5,30.17,North,350,0.0,0.0,95,0.00,,,0.00,0.0,meteohub,2013-08-10 08:32:00,
2013-08-10 03:37:00,54.0,52.9,30.18,North,350,0.0,0.0,96,0.00,,,0.00,0.0,meteohub,2013-08-10 08:37:00,
2013-08-10 03:42:00,54.0,52.9,30.18,North,350,0.0,0.0,96,0.00,,,0.00,0.0,meteohub,2013-08-10 08:42:00,
2013-08-10 03:47:00,53.8,52.7,30.18,North,350,0.0,0.0,96,0.00,,,0.00,0.0,meteohub,2013-08-10 08:47:00,
2013-08-10 03:52:00,53.8,52.7,30.18,North,350,0.0,0.0,96,0.00,,,0.00,0.0,meteohub,2013-08-10 08:52:00,
2013-08-10 03:57:00,53.8,52.7,30.18,North,350,0.0,0.0,96,0.00,,,0.00,0.0,meteohub,2013-08-10 08:57:00,
2013-08-10 04:02:00,53.8,52.7,30.18,North,350,0.0,0.0,96,0.00,,,0.00,0.0,meteohub,2013-08-10 09:02:00,
2013-08-10 04:07:00,53.8,52.7,30.18,North,350,0.0,0.0,96,0.00,,,0.00,0.0,meteohub,2013-08-10 09:07:00,
2013-08-10 04:12:00,53.8,52.7,30.18,North,350,0.0,0.0,96,0.00,,,0.00,0.0,meteohub,2013-08-10 09:12:00,
2013-08-10 04:17:00,53.8,52.7,30.18,North,350,0.0,0.0,96,0.00,,,0.00,0.0,meteohub,2013-08-10 09:17:00,
2013-08-10 04:22:00,53.8,52.7,30.18,North,350,0.0,0.0,96,0.00,,,0.00,0.0,meteohub,2013-08-10 09:22:00,
2013-08-10 04:27:00,54.0,52.9,30.18,North,350,0.0,0.0,96,0.00,,,0.00,0.0,meteohub,2013-08-10 09:27:00,
2013-08-10 04:32:00,54.0,52.9,30.18,North,350,0.0,0.0,96,0.00,,,0.00,0.0,meteohub,2013-08-10 09:32:00,
2013-08-10 04:36:00,54.0,52.9,30.19,North,350,0.0,0.0,96,0.00,,,0.00,0.0,meteohub,2013-08-10 09:36:00,
2013-08-10 04:42:00,54.0,52.9,30.19,North,350,0.0,0.0,96,0.00,,,0.00,0.0,meteohub,2013-08-10 09:42:00,
2013-08-10 04:47:00,54.0,52.9,30.19,North,350,0.0,0.0,96,0.00,,,0.00,0.0,meteohub,2013-08-10 09:47:00,
2013-08-10 04:51:00,54.0,52.9,30.19,North,350,0.0,0.0,96,0.00,,,0.00,0.0,meteohub,2013-08-10 09:51:00,
2013-08-10 04:57:00,54.1,53.1,30.19,North,350,0.0,0.0,96,0.00,,,0.00,0.0,meteohub,2013-08-10 09:57:00,
2013-08-10 05:02:00,54.1,53.1,30.19,North,350,0.0,0.0,96,0.00,,,0.00,0.0,meteohub,2013-08-10 10:02:00,
2013-08-10 05:07:00,54.1,53.1,30.19,North,350,0.0,0.0,96,0.00,,,0.00,0.0,meteohub,2013-08-10 10:07:00,
2013-08-10 05:12:00,54.0,52.9,30.19,North,350,0.0,0.0,96,0.00,,,0.00,0.0,meteohub,2013-08-10 10:12:00,
2013-08-10 05:17:00,54.0,52.9,30.19,North,350,0.0,0.0,96,0.00,,,0.00,0.0,meteohub,2013-08-10 10:17:00,
2013-08-10 05:22:00,54.1,53.1,30.19,North,350,0.0,0.0,96,0.00,,,0.00,0.0,meteohub,2013-08-10 10:22:00,
2013-08-10 05:27:00,54.1,53.1,30.19,North,350,0.0,0.0,96,0.00,,,0.00,0.0,meteohub,2013-08-10 10:27:00,
2013-08-10 05:32:00,54.1,53.1,30.19,North,350,0.0,0.0,96,0.00,,,0.00,0.0,meteohub,2013-08-10 10:32:00,
2013-08-10 05:37:00,54.1,53.1,30.19,North,350,0.0,0.0,96,0.00,,,0.00,0.0,meteohub,2013-08-10 10:37:00,
2013-08-10 05:42:00,54.1,53.1,30.19,North,350,0.0,0.0,96,0.00,,,0.00,0.0,meteohub,2013-08-10 10:42:00,
2013-08-10 05:47:00,54.1,53.1,30.19,North,350,0.0,0.0,96,0.00,,,0.00,0.0,meteohub,2013-08-10 10:47:00,
2013-08-10 05:52:00,54.1,53.1,30.19,North,350,0.0,0.0,96,0.00,,,0.00,0.0,meteohub,2013-08-10 10:52:00,
2013-08-10 05:57:00,54.1,53.1,30.19,North,350,0.0,0.0,96,0.00,,,0.00,0.0,meteohub,2013-08-10 10:57:00,
2013-08-10 06:02:00,54.0,52.9,30.19,North,350,0.0,0.0,96,0.00,,,0.00,0.0,meteohub,2013-08-10 11:02:00,
2013-08-10 06:07:00,54.0,52.9,30.19,North,350,0.0,0.0,96,0.00,,,0.00,0.0,meteohub,2013-08-10 11:07:00,
2013-08-10 06:12:00,54.0,52.9,30.19,North,350,0.0,0.0,96,0.00,,,0.00,0.0,meteohub,2013-08-10 11:12:00,
2013-08-10 06:17:00,54.0,52.9,30.19,North,350,0.0,0.0,96,0.00,,,0.00,0.0,meteohub,2013-08-10 11:17:00,
2013-08-10 06:22:00,53.8,52.7,30.19,North,350,0.0,0.0,96,0.00,,,0.00,5.0,meteohub,2013-08-10 11:22:00,
2013-08-10 06:27:00,53.8,52.7,30.19,North,350,0.0,0.0,96,0.00,,,0.00,5.0,meteohub,2013-08-10 11:27:00,
2013-08-10 06:32:00,53.6,52.5,30.20,North,350,0.0,0.0,96,0.00,,,0.00,7.0,meteohub,2013-08-10 11:32:00,
2013-08-10 06:37:00,53.4,52.3,30.20,North,350,0.0,0.0,96,0.00,,,0.00,9.0,meteohub,2013-08-10 11:37:00,
2013-08-10 06:42:00,53.4,52.3,30.20,North,350,0.0,0.0,96,0.00,,,0.00,11.0,meteohub,2013-08-10 11:42:00,
2013-08-10 06:47:00,53.2,52.2,30.20,North,350,0.0,0.0,96,0.00,,,0.00,12.0,meteohub,2013-08-10 11:47:00,
2013-08-10 06:52:00,53.2,52.3,30.20,North,350,0.0,0.0,97,0.00,,,0.00,12.0,meteohub,2013-08-10 11:52:00,
2013-08-10 06:57:00,53.1,52.2,30.20,North,350,0.0,0.0,97,0.00,,,0.00,12.0,meteohub,2013-08-10 11:57:00,
2013-08-10 07:02:00,53.1,52.2,30.20,North,350,0.0,0.0,97,0.00,,,0.00,14.0,meteohub,2013-08-10 12:02:00,
2013-08-10 07:06:00,53.1,52.2,30.20,North,350,0.0,0.0,97,0.00,,,0.00,16.0,meteohub,2013-08-10 12:06:00,
2013-08-10 07:11:00,53.1,52.2,30.20,North,350,0.0,0.0,97,0.00,,,0.00,18.0,meteohub,2013-08-10 12:11:00,
2013-08-10 07:17:00,53.1,52.2,30.20,North,350,0.0,0.0,97,0.00,,,0.00,23.0,meteohub,2013-08-10 12:17:00,
2013-08-10 07:22:00,53.1,52.2,30.20,North,350,0.0,0.0,97,0.00,,,0.00,25.0,meteohub,2013-08-10 12:22:00,
2013-08-10 07:27:00,53.1,52.2,30.20,North,350,0.0,0.0,97,0.00,,,0.00,26.0,meteohub,2013-08-10 12:27:00,
2013-08-10 07:32:00,53.2,52.3,30.20,North,350,0.0,0.0,97,0.00,,,0.00,28.0,meteohub,2013-08-10 12:32:00,
2013-08-10 07:37:00,53.8,52.9,30.20,North,350,0.0,0.0,97,0.00,,,0.00,30.0,meteohub,2013-08-10 12:37:00,
2013-08-10 07:42:00,54.0,53.1,30.20,North,350,0.0,0.0,97,0.00,,,0.00,33.0,meteohub,2013-08-10 12:42:00,
2013-08-10 07:47:00,54.1,53.2,30.20,North,350,0.0,0.0,97,0.00,,,0.00,37.0,meteohub,2013-08-10 12:47:00,
2013-08-10 07:52:00,54.3,53.4,30.20,North,350,0.0,0.0,97,0.00,,,0.00,39.0,meteohub,2013-08-10 12:52:00,
2013-08-10 07:57:00,54.5,53.6,30.20,North,350,0.0,0.0,97,0.00,,,0.00,40.0,meteohub,2013-08-10 12:57:00,
2013-08-10 08:02:00,54.7,53.8,30.20,North,350,0.0,0.0,97,0.00,,,0.00,44.0,meteohub,2013-08-10 13:02:00,
2013-08-10 08:07:00,55.0,54.1,30.20,North,350,0.0,0.0,97,0.00,,,0.00,49.0,meteohub,2013-08-10 13:07:00,
2013-08-10 08:12:00,55.4,54.5,30.20,North,350,0.0,0.0,97,0.00,,,0.00,47.0,meteohub,2013-08-10 13:12:00,
2013-08-10 08:17:00,55.6,54.7,30.20,North,350,0.0,0.0,97,0.00,,,0.00,49.0,meteohub,2013-08-10 13:17:00,
2013-08-10 08:22:00,55.8,54.9,30.20,North,350,0.0,0.0,97,0.00,,,0.00,56.0,meteohub,2013-08-10 13:22:00,
2013-08-10 08:27:00,56.1,55.2,30.20,North,350,0.0,0.0,97,0.00,,,0.00,62.0,meteohub,2013-08-10 13:27:00,
2013-08-10 08:32:00,56.7,55.6,30.20,North,350,0.0,0.0,96,0.00,,,0.00,62.0,meteohub,2013-08-10 13:32:00,
2013-08-10 08:37:00,57.4,56.3,30.20,North,350,0.0,1.0,96,0.00,,,0.00,72.0,meteohub,2013-08-10 13:37:00,
2013-08-10 08:42:00,57.9,56.5,30.20,North,350,0.0,1.0,95,0.00,,,0.00,76.0,meteohub,2013-08-10 13:42:00,
2013-08-10 08:47:00,58.3,56.8,30.20,North,350,0.0,1.0,95,0.00,,,0.00,105.0,meteohub,2013-08-10 13:47:00,
2013-08-10 08:52:00,58.3,56.5,30.20,North,350,0.0,0.0,94,0.00,,,0.00,137.0,meteohub,2013-08-10 13:52:00,
2013-08-10 08:57:00,58.8,57.4,30.20,North,350,0.0,0.0,95,0.00,,,0.00,322.0,meteohub,2013-08-10 13:57:00,
2013-08-10 09:02:00,59.7,57.7,30.20,North,350,0.0,0.0,93,0.00,,,0.00,135.0,meteohub,2013-08-10 14:02:00,
2013-08-10 09:07:00,60.4,58.5,30.20,North,350,0.0,2.0,93,0.00,,,0.00,380.0,meteohub,2013-08-10 14:07:00,
2013-08-10 09:12:00,61.2,58.5,30.20,North,350,1.0,2.0,91,0.00,,,0.00,406.0,meteohub,2013-08-10 14:12:00,
2013-08-10 09:17:00,61.9,59.2,30.20,North,350,0.0,2.0,91,0.00,,,0.00,174.0,meteohub,2013-08-10 14:17:00,
2013-08-10 09:22:00,62.1,57.7,30.20,NNW,332,1.0,1.0,86,0.00,,,0.00,146.0,meteohub,2013-08-10 14:22:00,
2013-08-10 09:27:00,62.2,57.9,30.20,NNW,332,0.0,2.0,86,0.00,,,0.00,204.0,meteohub,2013-08-10 14:27:00,
2013-08-10 09:32:00,62.6,59.0,30.20,NNW,332,0.0,2.0,88,0.00,,,0.00,142.0,meteohub,2013-08-10 14:32:00,
2013-08-10 09:37:00,63.0,59.0,30.20,NNW,331,0.0,2.0,87,0.00,,,0.00,287.0,meteohub,2013-08-10 14:37:00,
2013-08-10 09:42:00,63.1,58.8,30.20,NNW,331,0.0,2.0,86,0.00,,,0.00,359.0,meteohub,2013-08-10 14:42:00,
2013-08-10 09:47:00,63.7,59.7,30.20,NNW,331,1.0,2.0,87,0.00,,,0.00,499.0,meteohub,2013-08-10 14:47:00,
2013-08-10 09:52:00,63.9,59.5,30.20,NNW,331,0.0,2.0,86,0.00,,,0.00,510.0,meteohub,2013-08-10 14:52:00,
2013-08-10 09:57:00,63.1,58.6,30.20,NNW,331,0.0,2.0,85,0.00,,,0.00,524.0,meteohub,2013-08-10 14:57:00,
2013-08-10 10:02:00,64.0,58.8,30.20,NW,326,0.0,2.0,83,0.00,,,0.00,538.0,meteohub,2013-08-10 15:02:00,
2013-08-10 10:07:00,64.6,60.3,30.20,NW,326,0.0,1.0,86,0.00,,,0.00,552.0,meteohub,2013-08-10 15:07:00,
2013-08-10 10:12:00,64.8,58.8,30.20,NNE,22,0.0,1.0,81,0.00,,,0.00,564.0,meteohub,2013-08-10 15:12:00,
2013-08-10 10:17:00,64.8,58.5,30.20,NE,47,0.0,3.0,80,0.00,,,0.00,578.0,meteohub,2013-08-10 15:17:00,
2013-08-10 10:22:00,65.3,59.0,30.20,NNE,30,0.0,3.0,80,0.00,,,0.00,592.0,meteohub,2013-08-10 15:22:00,
2013-08-10 10:27:00,66.6,59.2,30.20,NNE,28,2.0,3.0,77,0.00,,,0.00,601.0,meteohub,2013-08-10 15:27:00,
2013-08-10 10:32:00,67.1,58.5,30.19,ENE,73,2.0,2.0,74,0.00,,,0.00,612.0,meteohub,2013-08-10 15:32:00,
2013-08-10 10:37:00,67.5,60.1,30.19,NE,41,1.0,2.0,77,0.00,,,0.00,626.0,meteohub,2013-08-10 15:37:00,
2013-08-10 10:42:00,67.6,60.6,30.19,WNW,298,0.0,2.0,78,0.00,,,0.00,636.0,meteohub,2013-08-10 15:42:00,
2013-08-10 10:47:00,67.5,59.5,30.18,East,94,0.0,3.0,76,0.00,,,0.00,656.0,meteohub,2013-08-10 15:47:00,
2013-08-10 10:52:00,68.4,58.6,30.19,SSE,148,0.0,3.0,71,0.00,,,0.00,715.0,meteohub,2013-08-10 15:52:00,
2013-08-10 10:57:00,67.5,58.1,30.19,SSE,150,0.0,3.0,72,0.00,,,0.00,700.0,meteohub,2013-08-10 15:57:00,
2013-08-10 11:02:00,67.3,57.6,30.18,SE,136,0.0,3.0,71,0.00,,,0.00,694.0,meteohub,2013-08-10 16:02:00,
2013-08-10 11:07:00,67.6,61.0,30.19,SSE,153,0.0,2.0,79,0.00,,,0.00,708.0,meteohub,2013-08-10 16:07:00,
2013-08-10 11:12:00,67.8,61.0,30.19,South,186,0.0,2.0,79,0.00,,,0.00,694.0,meteohub,2013-08-10 16:12:00,
2013-08-10 11:17:00,68.5,57.9,30.19,SSE,150,1.0,3.0,69,0.00,,,0.00,721.0,meteohub,2013-08-10 16:17:00,
2013-08-10 11:22:00,69.1,58.1,30.19,NE,56,0.0,3.0,68,0.00,,,0.00,724.0,meteohub,2013-08-10 16:22:00,
2013-08-10 11:27:00,69.3,58.3,30.19,NE,56,0.0,3.0,68,0.00,,,0.00,728.0,meteohub,2013-08-10 16:27:00,
2013-08-10 11:32:00,69.4,57.6,30.19,ENE,68,0.0,2.0,66,0.00,,,0.00,742.0,meteohub,2013-08-10 16:32:00,
2013-08-10 11:37:00,69.1,57.2,30.19,ENE,60,1.0,3.0,66,0.00,,,0.00,754.0,meteohub,2013-08-10 16:37:00,
2013-08-10 11:42:00,70.0,60.6,30.19,North,0,2.0,3.0,72,0.00,,,0.00,731.0,meteohub,2013-08-10 16:42:00,
2013-08-10 11:47:00,69.6,59.0,30.18,NW,311,0.0,3.0,69,0.00,,,0.00,719.0,meteohub,2013-08-10 16:47:00,
2013-08-10 11:52:00,70.2,61.5,30.18,NE,52,0.0,3.0,74,0.00,,,0.00,768.0,meteohub,2013-08-10 16:52:00,
2013-08-10 11:57:00,70.2,59.5,30.18,SSE,159,1.0,3.0,69,0.00,,,0.00,777.0,meteohub,2013-08-10 16:57:00,
2013-08-10 12:02:00,70.7,62.1,30.18,NE,43,1.0,2.0,74,0.00,,,0.00,784.0,meteohub,2013-08-10 17:02:00,
2013-08-10 12:07:00,71.1,59.2,30.18,NW,304,1.0,2.0,66,0.00,,,0.00,791.0,meteohub,2013-08-10 17:07:00,
2013-08-10 12:12:00,70.7,59.5,30.18,NNE,14,0.0,4.0,68,0.00,,,0.00,791.0,meteohub,2013-08-10 17:12:00,
2013-08-10 12:17:00,71.4,61.9,30.18,NE,36,1.0,4.0,72,0.00,,,0.00,802.0,meteohub,2013-08-10 17:17:00,
2013-08-10 12:22:00,71.8,61.5,30.18,NNE,33,0.0,4.0,70,0.00,,,0.00,788.0,meteohub,2013-08-10 17:22:00,
2013-08-10 12:27:00,71.1,56.8,30.18,North,351,1.0,3.0,61,0.00,,,0.00,828.0,meteohub,2013-08-10 17:27:00,
2013-08-10 12:32:00,70.5,59.4,30.18,NNW,348,0.0,4.0,68,0.00,,,0.00,738.0,meteohub,2013-08-10 17:32:00,
2013-08-10 12:37:00,70.5,56.8,30.18,North,9,0.0,4.0,62,0.00,,,0.00,831.0,meteohub,2013-08-10 17:37:00,
2013-08-10 12:42:00,70.9,59.0,30.18,North,9,1.0,2.0,66,0.00,,,0.00,626.0,meteohub,2013-08-10 17:42:00,
2013-08-10 12:47:00,70.3,57.6,30.17,NNE,30,0.0,3.0,64,0.00,,,0.00,759.0,meteohub,2013-08-10 17:47:00,
2013-08-10 12:52:00,70.5,57.7,30.17,ESE,109,0.0,3.0,64,0.00,,,0.00,782.0,meteohub,2013-08-10 17:52:00,
2013-08-10 12:57:00,71.8,62.6,30.17,ESE,109,0.0,3.0,73,0.00,,,0.00,831.0,meteohub,2013-08-10 17:57:00,
2013-08-10 13:02:00,71.8,59.7,30.17,ENE,57,0.0,3.0,66,0.00,,,0.00,703.0,meteohub,2013-08-10 18:02:00,
2013-08-10 13:07:00,72.3,59.9,30.17,ENE,57,0.0,3.0,65,0.00,,,0.00,967.0,meteohub,2013-08-10 18:07:00,
2013-08-10 13:12:00,71.8,60.3,30.17,WSW,246,0.0,3.0,67,0.00,,,0.00,288.0,meteohub,2013-08-10 18:12:00,
2013-08-10 13:17:00,70.0,61.3,30.17,WSW,246,0.0,2.0,74,0.00,,,0.00,360.0,meteohub,2013-08-10 18:17:00,
2013-08-10 13:22:00,70.5,61.5,30.17,WSW,246,0.0,1.0,73,0.00,,,0.00,904.0,meteohub,2013-08-10 18:22:00,
2013-08-10 13:27:00,71.2,58.5,30.17,West,273,0.0,2.0,64,0.00,,,0.00,279.0,meteohub,2013-08-10 18:27:00,
2013-08-10 13:32:00,71.6,60.1,30.17,North,5,0.0,3.0,67,0.00,,,0.00,914.0,meteohub,2013-08-10 18:32:00,
2013-08-10 13:37:00,70.3,58.5,30.17,NW,308,1.0,3.0,66,0.00,,,0.00,271.0,meteohub,2013-08-10 18:37:00,
2013-08-10 13:42:00,71.6,60.1,30.16,NW,308,0.0,3.0,67,0.00,,,0.00,951.0,meteohub,2013-08-10 18:42:00,
2013-08-10 13:47:00,72.7,61.5,30.16,NE,38,0.0,1.0,68,0.00,,,0.00,937.0,meteohub,2013-08-10 18:47:00,
2013-08-10 13:52:00,72.5,62.6,30.16,NE,44,1.0,1.0,71,0.00,,,0.00,898.0,meteohub,2013-08-10 18:52:00,
2013-08-10 13:57:00,73.4,62.2,30.16,WNW,284,2.0,2.0,68,0.00,,,0.00,888.0,meteohub,2013-08-10 18:57:00,
2013-08-10 14:02:00,72.5,60.1,30.16,West,278,0.0,4.0,65,0.00,,,0.00,872.0,meteohub,2013-08-10 19:02:00,
2013-08-10 14:07:00,72.9,61.7,30.16,NNW,347,0.0,4.0,68,0.00,,,0.00,918.0,meteohub,2013-08-10 19:07:00,
2013-08-10 14:12:00,72.1,59.4,30.16,NNE,24,0.0,4.0,64,0.00,,,0.00,276.0,meteohub,2013-08-10 19:12:00,
2013-08-10 14:17:00,71.2,59.4,30.16,SSE,152,0.0,4.0,66,0.00,,,0.00,218.0,meteohub,2013-08-10 19:17:00,
2013-08-10 14:22:00,70.5,58.1,30.16,West,277,0.0,4.0,65,0.00,,,0.00,232.0,meteohub,2013-08-10 19:22:00,
2013-08-10 14:27:00,71.4,58.6,30.16,NW,309,0.0,1.0,64,0.00,,,0.00,949.0,meteohub,2013-08-10 19:27:00,
2013-08-10 14:32:00,73.2,60.3,30.16,ESE,116,1.0,2.0,64,0.00,,,0.00,907.0,meteohub,2013-08-10 19:32:00,
2013-08-10 14:37:00,73.8,62.6,30.16,ENE,74,0.0,3.0,68,0.00,,,0.00,974.0,meteohub,2013-08-10 19:37:00,
2013-08-10 14:42:00,73.8,60.4,30.16,West,273,0.0,3.0,63,0.00,,,0.00,921.0,meteohub,2013-08-10 19:42:00,
2013-08-10 14:47:00,73.6,61.2,30.15,NE,53,1.0,3.0,65,0.00,,,0.00,677.0,meteohub,2013-08-10 19:47:00,
2013-08-10 14:52:00,73.0,59.7,30.15,WSW,248,0.0,3.0,63,0.00,,,0.00,824.0,meteohub,2013-08-10 19:52:00,
2013-08-10 14:57:00,73.6,61.5,30.15,WSW,248,0.0,3.0,66,0.00,,,0.00,851.0,meteohub,2013-08-10 19:57:00,
2013-08-10 15:02:00,73.8,59.9,30.15,WSW,248,0.0,3.0,62,0.00,,,0.00,821.0,meteohub,2013-08-10 20:02:00,
2013-08-10 15:07:00,73.6,60.6,30.15,WSW,248,0.0,2.0,64,0.00,,,0.00,835.0,meteohub,2013-08-10 20:07:00,
2013-08-10 15:12:00,74.1,61.2,30.14,NNE,13,0.0,2.0,64,0.00,,,0.00,796.0,meteohub,2013-08-10 20:12:00,
2013-08-10 15:17:00,74.1,61.2,30.14,WSW,240,0.0,2.0,64,0.00,,,0.00,802.0,meteohub,2013-08-10 20:17:00,
2013-08-10 15:22:00,73.8,59.9,30.14,South,190,0.0,2.0,62,0.00,,,0.00,853.0,meteohub,2013-08-10 20:22:00,
2013-08-10 15:27:00,73.6,59.4,30.14,East,96,0.0,2.0,61,0.00,,,0.00,410.0,meteohub,2013-08-10 20:27:00,
2013-08-10 15:32:00,73.2,59.9,30.14,NNE,21,0.0,2.0,63,0.00,,,0.00,823.0,meteohub,2013-08-10 20:32:00,
2013-08-10 15:37:00,73.8,64.6,30.14,NNE,19,2.0,2.0,73,0.00,,,0.00,807.0,meteohub,2013-08-10 20:37:00,
2013-08-10 15:42:00,73.6,61.9,30.14,West,272,0.0,2.0,67,0.00,,,0.00,786.0,meteohub,2013-08-10 20:42:00,
2013-08-10 15:47:00,73.9,60.6,30.13,West,272,0.0,3.0,63,0.00,,,0.00,371.0,meteohub,2013-08-10 20:47:00,
2013-08-10 15:52:00,73.8,60.4,30.13,NNE,22,0.0,3.0,63,0.00,,,0.00,366.0,meteohub,2013-08-10 20:52:00,
2013-08-10 15:57:00,73.9,60.1,30.13,NE,55,0.0,3.0,62,0.00,,,0.00,487.0,meteohub,2013-08-10 20:57:00,
2013-08-10 16:02:00,73.0,61.5,30.13,NE,55,0.0,2.0,67,0.00,,,0.00,320.0,meteohub,2013-08-10 21:02:00,
2013-08-10 16:07:00,72.3,62.8,30.13,NE,55,0.0,2.0,72,0.00,,,0.00,285.0,meteohub,2013-08-10 21:07:00,
2013-08-10 16:12:00,72.3,63.9,30.12,NE,55,0.0,1.0,75,0.00,,,0.00,424.0,meteohub,2013-08-10 21:12:00,
2013-08-10 16:17:00,72.5,60.1,30.12,NE,55,0.0,0.0,65,0.00,,,0.00,260.0,meteohub,2013-08-10 21:17:00,
2013-08-10 16:22:00,72.7,59.7,30.12,NE,55,0.0,1.0,64,0.00,,,0.00,288.0,meteohub,2013-08-10 21:22:00,
2013-08-10 16:27:00,72.1,61.9,30.12,NE,55,0.0,1.0,70,0.00,,,0.00,295.0,meteohub,2013-08-10 21:27:00,
2013-08-10 16:32:00,72.0,62.4,30.12,NE,55,0.0,0.0,72,0.00,,,0.00,209.0,meteohub,2013-08-10 21:32:00,
2013-08-10 16:37:00,71.8,62.6,30.12,NE,55,0.0,0.0,73,0.00,,,0.00,190.0,meteohub,2013-08-10 21:37:00,
2013-08-10 16:42:00,71.2,64.4,30.12,NE,55,0.0,0.0,79,0.00,,,0.00,197.0,meteohub,2013-08-10 21:42:00,
2013-08-10 16:47:00,71.2,63.7,30.12,NE,55,0.0,0.0,77,0.00,,,0.00,279.0,meteohub,2013-08-10 21:47:00,
2013-08-10 16:52:00,71.4,64.9,30.12,NE,55,0.0,0.0,80,0.00,,,0.00,204.0,meteohub,2013-08-10 21:52:00,
2013-08-10 16:57:00,71.6,62.4,30.12,NE,55,0.0,0.0,73,0.00,,,0.00,171.0,meteohub,2013-08-10 21:57:00,
2013-08-10 17:02:00,71.6,64.4,30.11,NE,55,0.0,0.0,78,0.00,,,0.00,186.0,meteohub,2013-08-10 22:02:00,
2013-08-10 17:07:00,71.8,63.0,30.11,NE,55,0.0,0.0,74,0.00,,,0.00,171.0,meteohub,2013-08-10 22:07:00,
2013-08-10 17:12:00,71.8,62.6,30.11,NE,55,0.0,0.0,73,0.00,,,0.00,165.0,meteohub,2013-08-10 22:12:00,
2013-08-10 17:17:00,71.4,65.7,30.11,NE,55,0.0,0.0,82,0.00,,,0.00,149.0,meteohub,2013-08-10 22:17:00,
2013-08-10 17:22:00,71.2,64.4,30.11,NE,55,0.0,0.0,79,0.00,,,0.00,139.0,meteohub,2013-08-10 22:22:00,
2013-08-10 17:27:00,70.7,63.5,30.11,NE,55,0.0,0.0,78,0.00,,,0.00,134.0,meteohub,2013-08-10 22:27:00,
2013-08-10 17:32:00,71.1,64.2,30.10,NE,55,0.0,0.0,79,0.00,,,0.00,137.0,meteohub,2013-08-10 22:32:00,
2013-08-10 17:37:00,70.9,63.7,30.10,NE,55,0.0,0.0,78,0.00,,,0.00,137.0,meteohub,2013-08-10 22:37:00,
2013-08-10 17:42:00,70.9,63.3,30.10,NE,55,0.0,0.0,77,0.00,,,0.00,134.0,meteohub,2013-08-10 22:42:00,
2013-08-10 17:47:00,70.9,65.1,30.10,NE,55,0.0,0.0,82,0.00,,,0.00,146.0,meteohub,2013-08-10 22:47:00,
2013-08-10 17:52:00,70.9,62.2,30.10,NE,55,0.0,1.0,74,0.00,,,0.00,174.0,meteohub,2013-08-10 22:52:00,
2013-08-10 17:57:00,71.2,64.4,30.10,NE,55,0.0,1.0,79,0.00,,,0.00,185.0,meteohub,2013-08-10 22:57:00,
2013-08-10 18:02:00,71.6,61.7,30.09,WNW,298,0.0,1.0,71,0.00,,,0.00,146.0,meteohub,2013-08-10 23:02:00,
2013-08-10 18:07:00,71.4,63.9,30.09,WNW,298,0.0,2.0,77,0.00,,,0.00,123.0,meteohub,2013-08-10 23:07:00,
2013-08-10 18:12:00,70.9,63.3,30.09,WNW,298,0.0,2.0,77,0.00,,,0.00,116.0,meteohub,2013-08-10 23:12:00,
2013-08-10 18:17:00,70.3,64.2,30.09,WNW,298,0.0,2.0,81,0.00,,,0.00,116.0,meteohub,2013-08-10 23:17:00,
2013-08-10 18:22:00,70.2,63.3,30.09,WNW,298,0.0,0.0,79,0.00,,,0.00,121.0,meteohub,2013-08-10 23:22:00,
2013-08-10 18:27:00,70.7,64.2,30.09,WNW,298,0.0,0.0,80,0.00,,,0.00,125.0,meteohub,2013-08-10 23:27:00,
2013-08-10 18:32:00,70.3,64.6,30.09,WNW,298,0.0,0.0,82,0.00,,,0.00,113.0,meteohub,2013-08-10 23:32:00,
2013-08-10 18:37:00,70.0,63.9,30.08,WNW,298,0.0,0.0,81,0.00,,,0.00,93.0,meteohub,2013-08-10 23:37:00,
2013-08-10 18:42:00,70.3,62.1,30.08,WNW,298,0.0,0.0,75,0.00,,,0.00,83.0,meteohub,2013-08-10 23:42:00,
2013-08-10 18:47:00,70.0,62.8,30.08,North,355,0.0,1.0,78,0.00,,,0.00,74.0,meteohub,2013-08-10 23:47:00,
2013-08-10 18:52:00,69.8,63.3,30.07,North,355,0.0,1.0,80,0.00,,,0.00,58.0,meteohub,2013-08-10 23:52:00,
2013-08-10 18:57:00,69.4,63.3,30.07,North,355,0.0,1.0,81,0.00,,,0.00,53.0,meteohub,2013-08-10 23:57:00,
2013-08-10 19:02:00,69.3,63.5,30.07,North,355,0.0,1.0,82,0.00,,,0.00,49.0,meteohub,2013-08-11 00:02:00,
2013-08-10 19:07:00,69.6,62.8,30.06,North,5,0.0,1.0,79,0.00,,,0.00,51.0,meteohub,2013-08-11 00:07:00,
2013-08-10 19:12:00,69.8,61.9,30.06,North,0,0.0,1.0,76,0.00,,,0.00,51.0,meteohub,2013-08-11 00:12:00,
2013-08-10 19:17:00,70.0,62.8,30.06,North,0,0.0,1.0,78,0.00,,,0.00,46.0,meteohub,2013-08-11 00:17:00,
2013-08-10 19:22:00,69.8,63.3,30.05,SE,126,0.0,1.0,80,0.00,,,0.00,35.0,meteohub,2013-08-11 00:22:00,
2013-08-10 19:27:00,69.3,62.4,30.06,WSW,246,2.0,2.0,79,0.00,,,0.00,30.0,meteohub,2013-08-11 00:27:00,
2013-08-10 19:32:00,69.4,63.3,30.06,WSW,246,0.0,2.0,81,0.00,,,0.00,26.0,meteohub,2013-08-11 00:32:00,
2013-08-10 19:37:00,69.3,63.1,30.06,WSW,246,0.0,2.0,81,0.00,,,0.00,19.0,meteohub,2013-08-11 00:37:00,
2013-08-10 19:42:00,68.5,63.1,30.06,WSW,246,0.0,2.0,83,0.00,,,0.00,18.0,meteohub,2013-08-11 00:42:00,
2013-08-10 19:47:00,68.5,63.1,30.06,WSW,246,0.0,0.0,83,0.00,,,0.00,32.0,meteohub,2013-08-11 00:47:00,
2013-08-10 19:52:00,68.5,63.1,30.06,WSW,246,0.0,0.0,83,0.00,,,0.00,30.0,meteohub,2013-08-11 00:52:00,
2013-08-10 19:57:00,68.2,63.1,30.06,WSW,246,0.0,0.0,84,0.00,,,0.00,19.0,meteohub,2013-08-11 00:57:00,
2013-08-10 20:01:00,68.2,63.1,30.06,WSW,246,0.0,0.0,84,0.00,,,0.00,26.0,meteohub,2013-08-11 01:01:00,
2013-08-10 20:06:00,68.4,63.0,30.06,WSW,246,0.0,0.0,83,0.00,,,0.00,25.0,meteohub,2013-08-11 01:06:00,
2013-08-10 20:07:00,68.4,63.0,30.06,WSW,246,0.0,0.0,83,0.00,,,0.00,25.0,meteohub,2013-08-11 01:07:00,
2013-08-10 20:12:00,68.2,63.1,30.06,WSW,246,0.0,0.0,84,0.00,,,0.00,21.0,meteohub,2013-08-11 01:12:00,
2013-08-10 20:17:00,68.2,63.5,30.06,WSW,246,0.0,0.0,85,0.00,,,0.00,16.0,meteohub,2013-08-11 01:17:00,
2013-08-10 20:22:00,68.0,63.0,30.06,WSW,246,0.0,1.0,84,0.00,,,0.00,11.0,meteohub,2013-08-11 01:22:00,
2013-08-10 20:27:00,67.8,62.8,30.06,WSW,246,0.0,1.0,84,0.00,,,0.00,7.0,meteohub,2013-08-11 01:27:00,
2013-08-10 20:32:00,67.8,62.4,30.06,WSW,250,0.0,1.0,83,0.00,,,0.00,0.0,meteohub,2013-08-11 01:32:00,
2013-08-10 20:37:00,68.0,63.0,30.06,WSW,250,0.0,1.0,84,0.00,,,0.00,0.0,meteohub,2013-08-11 01:37:00,
2013-08-10 20:42:00,67.6,63.0,30.06,WSW,250,0.0,1.0,85,0.00,,,0.00,0.0,meteohub,2013-08-11 01:42:00,
2013-08-10 20:47:00,67.5,62.8,30.06,WSW,250,0.0,1.0,85,0.00,,,0.00,0.0,meteohub,2013-08-11 01:47:00,
2013-08-10 20:52:00,67.5,62.4,30.06,NNW,339,0.0,1.0,84,0.00,,,0.00,0.0,meteohub,2013-08-11 01:52:00,
2013-08-10 20:57:00,67.6,62.2,30.06,NNW,341,0.0,1.0,83,0.00,,,0.00,0.0,meteohub,2013-08-11 01:57:00,
2013-08-10 21:02:00,67.8,62.4,30.07,NNW,341,1.0,1.0,83,0.00,,,0.00,0.0,meteohub,2013-08-11 02:02:00,
2013-08-10 21:07:00,67.8,62.8,30.07,NNW,341,0.0,1.0,84,0.00,,,0.00,0.0,meteohub,2013-08-11 02:07:00,
2013-08-10 21:12:00,67.5,62.8,30.07,NNW,341,0.0,1.0,85,0.00,,,0.00,0.0,meteohub,2013-08-11 02:12:00,
2013-08-10 21:17:00,67.3,62.6,30.07,NNW,341,0.0,1.0,85,0.00,,,0.00,0.0,meteohub,2013-08-11 02:17:00,
2013-08-10 21:22:00,67.3,62.2,30.07,NNW,341,0.0,0.0,84,0.00,,,0.00,0.0,meteohub,2013-08-11 02:22:00,
2013-08-10 21:27:00,67.1,62.4,30.07,NNW,341,0.0,0.0,85,0.00,,,0.00,0.0,meteohub,2013-08-11 02:27:00,
2013-08-10 21:32:00,67.1,63.1,30.08,NNW,341,0.0,0.0,87,0.00,,,0.00,0.0,meteohub,2013-08-11 02:32:00,
2013-08-10 21:37:00,67.1,62.8,30.08,NNW,341,0.0,0.0,86,0.00,,,0.00,0.0,meteohub,2013-08-11 02:37:00,
2013-08-10 21:42:00,67.1,62.4,30.08,NNW,341,0.0,0.0,85,0.00,,,0.00,0.0,meteohub,2013-08-11 02:42:00,
2013-08-10 21:47:00,66.9,63.0,30.08,NNW,341,0.0,0.0,87,0.00,,,0.00,0.0,meteohub,2013-08-11 02:47:00,
2013-08-10 21:52:00,66.6,62.6,30.08,NNW,341,0.0,0.0,87,0.00,,,0.00,0.0,meteohub,2013-08-11 02:52:00,
2013-08-10 21:57:00,66.6,63.0,30.08,NNW,341,0.0,0.0,88,0.00,,,0.00,0.0,meteohub,2013-08-11 02:57:00,
2013-08-10 22:02:00,66.4,62.8,30.08,NNW,341,0.0,0.0,88,0.00,,,0.00,0.0,meteohub,2013-08-11 03:02:00,
2013-08-10 22:07:00,66.2,62.6,30.08,NNW,341,0.0,0.0,88,0.00,,,0.00,0.0,meteohub,2013-08-11 03:07:00,
2013-08-10 22:13:00,66.2,62.6,30.08,NNW,341,0.0,0.0,88,0.00,,,0.00,0.0,meteohub,2013-08-11 03:13:00,
2013-08-10 22:18:00,66.2,62.8,30.08,NNW,341,0.0,0.0,89,0.00,,,0.00,0.0,meteohub,2013-08-11 03:18:00,
2013-08-10 22:23:00,66.0,62.6,30.07,NNW,341,0.0,0.0,89,0.00,,,0.00,0.0,meteohub,2013-08-11 03:23:00,
2013-08-10 22:28:00,66.0,63.0,30.07,NNW,341,0.0,0.0,90,0.00,,,0.00,0.0,meteohub,2013-08-11 03:28:00,
2013-08-10 22:33:00,65.8,62.4,30.07,NNW,341,0.0,0.0,89,0.00,,,0.00,0.0,meteohub,2013-08-11 03:33:00,
2013-08-10 22:38:00,65.7,62.6,30.07,NNW,341,0.0,0.0,90,0.00,,,0.00,0.0,meteohub,2013-08-11 03:38:00,
2013-08-10 22:44:00,65.3,62.6,30.07,NNW,341,0.0,0.0,91,0.00,,,0.00,0.0,meteohub,2013-08-11 03:44:00,
2013-08-10 22:49:00,64.9,62.6,30.07,NNW,341,0.0,0.0,92,0.00,,,0.00,0.0,meteohub,2013-08-11 03:49:00,
2013-08-10 22:54:00,65.1,62.8,30.06,NNW,341,0.0,0.0,92,0.00,,,0.00,0.0,meteohub,2013-08-11 03:54:00,
2013-08-10 22:59:00,65.1,62.8,30.06,NNW,341,0.0,0.0,92,0.00,,,0.00,0.0,meteohub,2013-08-11 03:59:00,
2013-08-10 23:01:00,65.3,63.0,30.06,NNW,341,0.0,0.0,92,0.00,,,0.00,0.0,meteohub,2013-08-11 04:01:00,
2013-08-10 23:02:00,65.3,63.0,30.07,NNW,341,0.0,0.0,92,0.00,,,0.00,0.0,meteohub,2013-08-11 04:02:00,
2013-08-10 23:07:00,65.3,63.0,30.06,NNW,341,0.0,0.0,92,0.00,,,0.00,0.0,meteohub,2013-08-11 04:07:00,
2013-08-10 23:12:00,65.3,62.6,30.06,NNW,341,0.0,0.0,91,0.00,,,0.00,0.0,meteohub,2013-08-11 04:12:00,
2013-08-10 23:17:00,65.1,62.8,30.06,NNW,341,0.0,0.0,92,0.00,,,0.00,0.0,meteohub,2013-08-11 04:17:00,
2013-08-10 23:22:00,64.9,62.6,30.06,NNW,341,0.0,0.0,92,0.00,,,0.00,0.0,meteohub,2013-08-11 04:22:00,
2013-08-10 23:27:00,64.9,62.6,30.05,NNW,341,0.0,0.0,92,0.00,,,0.00,0.0,meteohub,2013-08-11 04:27:00,
2013-08-10 23:32:00,64.8,62.6,30.05,NNW,341,0.0,0.0,93,0.00,,,0.00,0.0,meteohub,2013-08-11 04:32:00,
2013-08-10 23:37:00,64.6,62.4,30.05,NNW,341,0.0,0.0,93,0.00,,,0.00,0.0,meteohub,2013-08-11 04:37:00,
2013-08-10 23:42:00,64.6,62.8,30.05,NNW,341,0.0,0.0,94,0.00,,,0.00,0.0,meteohub,2013-08-11 04:42:00,
2013-08-10 23:47:00,64.2,62.2,30.05,NNW,341,0.0,0.0,93,0.00,,,0.00,0.0,meteohub,2013-08-11 04:47:00,
2013-08-10 23:52:00,63.7,61.7,30.05,NNW,341,0.0,0.0,93,0.00,,,0.00,0.0,meteohub,2013-08-11 04:52:00,
2013-08-10 23:57:00,63.3,61.5,30.05,NNW,341,0.0,0.0,94,0.00,,,0.00,0.0,meteohub,2013-08-11 04:57:00,